createdAt,value
2018-03-28T00:01:11.459Z,99734
2018-03-28T00:03:40.291Z,99737
2018-03-28T00:06:08.388Z,99742
2018-03-28T00:08:36.455Z,99746
2018-03-28T00:11:04.535Z,99741
2018-03-28T00:13:32.627Z,99739
2018-03-28T00:16:00.695Z,99746
2018-03-28T00:18:28.794Z,99736
2018-03-28T00:20:58.126Z,99747
2018-03-28T00:23:26.220Z,99742
2018-03-28T00:25:54.402Z,99743
2018-03-28T00:28:22.489Z,99739
2018-03-28T00:30:50.562Z,99735
2018-03-28T00:33:18.659Z,99729
2018-03-28T00:35:47.654Z,99731
2018-03-28T00:38:15.752Z,99721
2018-03-28T00:40:43.820Z,99714
2018-03-28T00:43:12.204Z,99712
2018-03-28T00:45:40.271Z,99710
2018-03-28T00:48:09.221Z,99710
2018-03-28T00:50:37.304Z,99707
2018-03-28T00:53:05.422Z,99709
2018-03-28T00:55:33.611Z,99705
2018-03-28T00:58:01.688Z,99700
2018-03-28T01:00:29.781Z,99697
2018-03-28T01:02:58.983Z,99704
2018-03-28T01:05:27.072Z,99694
2018-03-28T01:07:55.914Z,99684
2018-03-28T01:10:23.987Z,99691
2018-03-28T01:12:52.080Z,99682
2018-03-28T01:15:21.177Z,99688
2018-03-28T01:17:49.276Z,99693
2018-03-28T01:20:18.223Z,99699
2018-03-28T01:22:48.007Z,99694
2018-03-28T01:25:16.928Z,99695
2018-03-28T01:27:45.728Z,99693
2018-03-28T01:30:13.812Z,99695
2018-03-28T01:32:41.971Z,99697
2018-03-28T01:35:10.043Z,99703
2018-03-28T01:37:38.129Z,99702
2018-03-28T01:40:06.220Z,99703
2018-03-28T01:42:35.342Z,99707
2018-03-28T01:45:03.433Z,99705
2018-03-28T01:47:31.506Z,99703
2018-03-28T01:49:59.611Z,99707
2018-03-28T01:52:27.688Z,99716
2018-03-28T01:54:55.792Z,99714
2018-03-28T01:57:23.863Z,99708
2018-03-28T01:59:51.951Z,99718
2018-03-28T02:02:20.318Z,99705
2018-03-28T02:04:48.425Z,99703
2018-03-28T02:07:16.496Z,99708
2018-03-28T02:09:44.586Z,99703
2018-03-28T02:12:13.786Z,99707
2018-03-28T02:14:41.857Z,99704
2018-03-28T02:17:09.952Z,99707
2018-03-28T02:19:38.023Z,99708
2018-03-28T02:22:06.120Z,99709
2018-03-28T02:24:34.187Z,99710
2018-03-28T02:27:02.268Z,99707
2018-03-28T02:29:30.370Z,99695
2018-03-28T02:31:58.445Z,99710
2018-03-28T02:34:26.547Z,99710
2018-03-28T02:36:54.623Z,99707
2018-03-28T02:39:23.487Z,99706
2018-03-28T02:41:51.599Z,99703
2018-03-28T02:44:19.651Z,99698
2018-03-28T02:46:47.740Z,99688
2018-03-28T02:49:16.787Z,99692
2018-03-28T02:51:46.152Z,99688
2018-03-28T02:54:14.243Z,99686
2018-03-28T02:56:44.002Z,99692
2018-03-28T02:59:12.109Z,99695
2018-03-28T03:01:40.418Z,99698
2018-03-28T03:04:08.565Z,99697
2018-03-28T03:06:36.647Z,99688
2018-03-28T03:09:04.772Z,99698
2018-03-28T03:11:32.851Z,99695
2018-03-28T03:14:01.717Z,99692
2018-03-28T03:16:29.823Z,99698
2018-03-28T03:18:57.986Z,99709
2018-03-28T03:21:26.103Z,99697
2018-03-28T03:23:54.188Z,99700
2018-03-28T03:26:22.279Z,99702
2018-03-28T03:28:50.355Z,99694
2018-03-28T03:31:18.452Z,99701
2018-03-28T03:33:46.529Z,99704
2018-03-28T03:36:14.626Z,99708
2018-03-28T03:38:42.701Z,99711
2018-03-28T03:41:10.797Z,99707
2018-03-28T03:43:39.015Z,99694
2018-03-28T03:46:07.865Z,99701
2018-03-28T03:48:36.863Z,99692
2018-03-28T03:51:05.150Z,99690
2018-03-28T03:53:33.343Z,99697
2018-03-28T03:56:01.450Z,99698
2018-03-28T03:58:29.528Z,99699
2018-03-28T04:00:57.896Z,99704
2018-03-28T04:03:26.007Z,99702
2018-03-28T04:05:54.106Z,99704
2018-03-28T04:08:22.310Z,99715
2018-03-28T04:10:50.375Z,99720
2018-03-28T04:13:18.527Z,99714
2018-03-28T04:15:46.616Z,99709
2018-03-28T04:18:15.452Z,99708
2018-03-28T04:20:43.527Z,99714
2018-03-28T04:23:11.790Z,99714
2018-03-28T04:25:39.870Z,99719
2018-03-28T04:28:07.963Z,99710
2018-03-28T04:30:36.030Z,99710
2018-03-28T04:33:04.130Z,99712
2018-03-28T04:35:37.672Z,99722
2018-03-28T04:38:05.769Z,99724
2018-03-28T04:40:33.864Z,99724
2018-03-28T04:43:01.941Z,99729
2018-03-28T04:45:30.024Z,99722
2018-03-28T04:47:58.121Z,99721
2018-03-28T04:50:26.215Z,99716
2018-03-28T04:52:54.419Z,99718
2018-03-28T04:55:22.785Z,99728
2018-03-28T04:57:53.271Z,99726
2018-03-28T05:00:21.358Z,99728
2018-03-28T05:02:49.435Z,99735
2018-03-28T05:05:17.529Z,99735
2018-03-28T05:07:45.612Z,99723
2018-03-28T05:10:14.509Z,99722
2018-03-28T05:12:43.245Z,99732
2018-03-28T05:15:11.311Z,99729
2018-03-28T05:17:40.475Z,99736
2018-03-28T05:20:08.540Z,99740
2018-03-28T05:22:37.455Z,99736
2018-03-28T05:25:05.517Z,99728
2018-03-28T05:27:34.454Z,99724
2018-03-28T05:30:02.601Z,99736
2018-03-28T05:32:30.670Z,99731
2018-03-28T05:34:58.747Z,99739
2018-03-28T05:37:26.839Z,99736
2018-03-28T05:39:54.921Z,99741
2018-03-28T05:42:23.023Z,99740
2018-03-28T05:44:51.106Z,99747
2018-03-28T05:47:19.443Z,99740
2018-03-28T05:49:48.232Z,99738
2018-03-28T05:52:17.043Z,99748
2018-03-28T05:54:45.130Z,99756
2018-03-28T05:57:13.476Z,99743
2018-03-28T05:59:41.575Z,99752
2018-03-28T06:02:09.647Z,99748
2018-03-28T06:04:37.735Z,99749
2018-03-28T06:07:06.580Z,99748
2018-03-28T06:09:34.658Z,99757
2018-03-28T06:12:02.752Z,99751
2018-03-28T06:14:30.827Z,99752
2018-03-28T06:16:58.927Z,99754
2018-03-28T06:19:27.768Z,99753
2018-03-28T06:21:55.862Z,99744
2018-03-28T06:24:24.059Z,99751
2018-03-28T06:26:52.152Z,99742
2018-03-28T06:29:20.256Z,99742
2018-03-28T06:31:48.336Z,99734
2018-03-28T06:34:17.181Z,99736
2018-03-28T06:36:46.142Z,99723
2018-03-28T06:39:15.003Z,99731
2018-03-28T06:41:43.099Z,99716
2018-03-28T06:44:11.900Z,99723
2018-03-28T06:46:40.577Z,99717
2018-03-28T06:49:08.898Z,99723
2018-03-28T06:51:37.149Z,99710
2018-03-28T06:54:05.993Z,99711
2018-03-28T06:56:34.079Z,99700
2018-03-28T06:59:02.979Z,99687
2018-03-28T07:01:31.885Z,99696
2018-03-28T07:04:00.739Z,99702
2018-03-28T07:06:28.842Z,99702
2018-03-28T07:08:56.934Z,99701
2018-03-28T07:11:25.793Z,99703
2018-03-28T07:13:54.211Z,99706
2018-03-28T07:16:22.300Z,99703
2018-03-28T07:18:50.385Z,99714
2018-03-28T07:21:18.479Z,99714
2018-03-28T07:23:46.555Z,99718
2018-03-28T07:26:14.656Z,99725
2018-03-28T07:28:44.406Z,99718
2018-03-28T07:31:12.563Z,99710
2018-03-28T07:33:42.940Z,99711
2018-03-28T07:36:11.051Z,99701
2018-03-28T07:38:39.955Z,99703
2018-03-28T07:41:08.236Z,99703
2018-03-28T07:43:36.371Z,99702
2018-03-28T07:46:04.488Z,99709
2018-03-28T07:48:32.586Z,99704
2018-03-28T07:51:00.739Z,99699
2018-03-28T07:53:28.836Z,99686
2018-03-28T07:55:56.915Z,99690
2018-03-28T07:58:25.004Z,99680
2018-03-28T08:00:53.103Z,99677
2018-03-28T08:03:21.191Z,99673
2018-03-28T08:05:49.360Z,99679
2018-03-28T08:08:17.580Z,99678
2018-03-28T08:10:45.676Z,99674
2018-03-28T08:13:13.754Z,99675
2018-03-28T08:15:41.854Z,99675
2018-03-28T08:18:09.937Z,99673
2018-03-28T08:20:38.020Z,99663
2018-03-28T08:23:06.120Z,99661
2018-03-28T08:25:34.202Z,99663
2018-03-28T08:28:02.290Z,99664
2018-03-28T08:30:31.128Z,99659
2018-03-28T08:32:59.230Z,99662
2018-03-28T08:35:27.329Z,99656
2018-03-28T08:37:57.011Z,99655
2018-03-28T08:40:25.080Z,99655
2018-03-28T08:42:53.172Z,99660
2018-03-28T08:45:22.009Z,99666
2018-03-28T08:47:50.368Z,99667
2018-03-28T08:50:18.471Z,99667
2018-03-28T08:52:47.308Z,99652
2018-03-28T08:55:15.411Z,99657
2018-03-28T08:57:43.482Z,99655
2018-03-28T09:00:11.579Z,99657
2018-03-28T09:02:39.660Z,99655
2018-03-28T09:05:08.578Z,99653
2018-03-28T09:07:37.670Z,99648
2018-03-28T09:10:05.889Z,99642
2018-03-28T09:12:33.983Z,99652
2018-03-28T09:15:02.167Z,99636
2018-03-28T09:17:30.262Z,99638
2018-03-28T09:19:58.365Z,99638
2018-03-28T09:22:26.463Z,99636
2018-03-28T09:24:54.574Z,99633
2018-03-28T09:27:22.875Z,99637
2018-03-28T09:29:51.222Z,99634
2018-03-28T09:32:19.303Z,99645
2018-03-28T09:34:47.391Z,99632
2018-03-28T09:37:16.643Z,99635
2018-03-28T09:39:44.761Z,99618
2018-03-28T09:42:13.655Z,99623
2018-03-28T09:44:42.514Z,99623
2018-03-28T09:47:11.658Z,99619
2018-03-28T09:49:39.755Z,99624
2018-03-28T09:52:07.834Z,99616
2018-03-28T09:54:36.693Z,99603
2018-03-28T09:57:04.797Z,99597
2018-03-28T09:59:32.875Z,99603
2018-03-28T10:02:00.973Z,99586
2018-03-28T10:04:35.234Z,99601
2018-03-28T10:07:03.377Z,99606
2018-03-28T10:09:31.588Z,99603
2018-03-28T10:11:59.684Z,99605
2018-03-28T10:14:27.788Z,99605
2018-03-28T10:16:55.867Z,99596
2018-03-28T10:19:24.868Z,99591
2018-03-28T10:21:53.715Z,99589
2018-03-28T10:24:21.808Z,99586
2018-03-28T10:26:52.284Z,99586
2018-03-28T10:29:26.016Z,99578
2018-03-28T10:31:54.100Z,99578
2018-03-28T10:34:23.320Z,99574
2018-03-28T10:36:51.416Z,99582
2018-03-28T10:39:20.270Z,99575
2018-03-28T10:41:48.466Z,99576
2018-03-28T10:44:17.310Z,99573
2018-03-28T10:46:45.883Z,99557
2018-03-28T10:49:13.985Z,99551
2018-03-28T10:51:42.063Z,99543
2018-03-28T10:54:10.155Z,99560
2018-03-28T10:56:39.106Z,99535
2018-03-28T10:59:07.844Z,99536
2018-03-28T11:01:36.775Z,99520
2018-03-28T11:04:04.875Z,99521
2018-03-28T11:06:32.959Z,99523
2018-03-28T11:09:01.073Z,99520
2018-03-28T11:11:29.146Z,99510
2018-03-28T11:13:57.281Z,99512
2018-03-28T11:16:26.289Z,99504
2018-03-28T11:18:54.396Z,99500
2018-03-28T11:21:22.492Z,99493
2018-03-28T11:23:50.933Z,99484
2018-03-28T11:26:19.013Z,99477
2018-03-28T11:28:47.110Z,99485
2018-03-28T11:31:15.209Z,99480
2018-03-28T11:33:43.303Z,99464
2018-03-28T11:36:13.210Z,99458
2018-03-28T11:38:42.077Z,99444
2018-03-28T11:41:16.487Z,99453
2018-03-28T11:43:45.468Z,99426
2018-03-28T11:46:13.543Z,99429
2018-03-28T11:48:41.631Z,99425
2018-03-28T11:51:09.719Z,99420
2018-03-28T11:53:37.815Z,99419
2018-03-28T11:56:06.660Z,99414
2018-03-28T11:58:34.808Z,99420
2018-03-28T12:01:02.888Z,99412
2018-03-28T12:03:30.987Z,99400
2018-03-28T12:05:59.060Z,99392
2018-03-28T12:08:28.088Z,99391
2018-03-28T12:10:56.932Z,99379
2018-03-28T12:13:25.014Z,99372
2018-03-28T12:15:53.173Z,99361
2018-03-28T12:18:21.340Z,99360
2018-03-28T12:20:49.619Z,99351
2018-03-28T12:23:18.682Z,99349
2018-03-28T12:25:47.043Z,99344
2018-03-28T12:28:15.899Z,99328
2018-03-28T12:30:43.995Z,99333
2018-03-28T12:33:12.067Z,99336
2018-03-28T12:35:40.169Z,99327
2018-03-28T12:38:08.265Z,99312
2018-03-28T12:40:36.440Z,99313
2018-03-28T12:43:04.518Z,99311
2018-03-28T12:45:32.654Z,99308
2018-03-28T12:48:00.694Z,99298
2018-03-28T12:50:28.832Z,99287
2018-03-28T12:52:56.916Z,99274
2018-03-28T12:55:25.056Z,99284
2018-03-28T12:57:53.123Z,99267
2018-03-28T13:00:21.199Z,99274
2018-03-28T13:02:49.297Z,99275
2018-03-28T13:05:17.363Z,99262
2018-03-28T13:07:45.434Z,99252
2018-03-28T13:10:13.540Z,99258
2018-03-28T13:12:41.620Z,99253
2018-03-28T13:17:42.542Z,99244
2018-03-28T13:20:10.642Z,99243
2018-03-28T13:22:38.788Z,99241
2018-03-28T13:25:06.886Z,99240
2018-03-28T13:27:35.139Z,99230
2018-03-28T13:30:03.405Z,99230
2018-03-28T13:32:31.486Z,99225
2018-03-28T13:34:59.579Z,99211
2018-03-28T13:37:27.655Z,99203
2018-03-28T13:39:55.803Z,99198
2018-03-28T13:42:23.904Z,99191
2018-03-28T13:44:52.013Z,99175
2018-03-28T13:47:20.095Z,99177
2018-03-28T13:49:48.164Z,99169
2018-03-28T13:52:16.950Z,99174
2018-03-28T13:54:45.056Z,99160
2018-03-28T13:57:19.306Z,99157
2018-03-28T13:59:47.674Z,99154
2018-03-28T14:02:15.872Z,99145
2018-03-28T14:04:45.458Z,99138
2018-03-28T14:07:13.548Z,99132
2018-03-28T14:09:47.511Z,99124
2018-03-28T14:12:19.553Z,99122
2018-03-28T14:14:47.844Z,99114
2018-03-28T14:17:16.637Z,99117
2018-03-28T14:19:44.729Z,99127
2018-03-28T14:22:12.824Z,99115
2018-03-28T14:24:40.920Z,99114
2018-03-28T14:27:09.035Z,99102
2018-03-28T14:29:37.143Z,99101
2018-03-28T14:32:06.028Z,99086
2018-03-28T14:34:34.119Z,99083
2018-03-28T14:37:02.996Z,99067
2018-03-28T14:39:31.086Z,99056
2018-03-28T14:41:59.959Z,99049
2018-03-28T14:44:28.038Z,99052
2018-03-28T14:46:57.886Z,99029
2018-03-28T14:49:25.981Z,99014
2018-03-28T14:51:54.070Z,99005
2018-03-28T14:54:22.156Z,98994
2018-03-28T14:56:50.265Z,98985
2018-03-28T14:59:18.358Z,98988
2018-03-28T15:01:46.447Z,98982
2018-03-28T15:04:14.531Z,98975
2018-03-28T15:06:42.630Z,98958
2018-03-28T15:09:10.707Z,98955
2018-03-28T15:11:38.798Z,98944
2018-03-28T15:14:06.887Z,98943
2018-03-28T15:16:34.970Z,98933
2018-03-28T15:19:03.173Z,98930
2018-03-28T15:21:31.505Z,98931
2018-03-28T15:23:59.895Z,98921
2018-03-28T15:26:27.974Z,98906
2018-03-28T15:28:56.147Z,98919
2018-03-28T15:31:24.229Z,98905
2018-03-28T15:33:52.315Z,98896
2018-03-28T15:36:20.386Z,98858
2018-03-28T15:38:48.474Z,98835
2018-03-28T15:41:17.152Z,98824
2018-03-28T15:43:45.236Z,98835
2018-03-28T15:46:13.333Z,98837
2018-03-28T15:48:42.521Z,98841
2018-03-28T15:51:10.665Z,98836
2018-03-28T15:53:38.739Z,98848
2018-03-28T15:56:06.837Z,98828
2018-03-28T15:58:34.938Z,98824
2018-03-28T16:01:03.014Z,98830
2018-03-28T16:03:31.099Z,98826
2018-03-28T16:05:59.210Z,98816
2018-03-28T16:08:28.534Z,98804
2018-03-28T16:10:57.666Z,98826
2018-03-28T16:13:29.400Z,98815
2018-03-28T16:15:57.495Z,98817
2018-03-28T16:18:26.438Z,98816
2018-03-28T16:20:54.769Z,98803
2018-03-28T16:23:22.870Z,98810
2018-03-28T16:25:50.982Z,98798
2018-03-28T16:28:19.123Z,98797
2018-03-28T16:30:47.359Z,98793
2018-03-28T16:33:15.451Z,98806
2018-03-28T16:35:43.556Z,98788
2018-03-28T16:38:12.392Z,98787
2018-03-28T16:40:40.573Z,98770
2018-03-28T16:43:08.649Z,98757
2018-03-28T16:45:36.772Z,98756
2018-03-28T16:48:05.339Z,98759
2018-03-28T16:50:33.396Z,98747
2018-03-28T16:53:01.493Z,98754
2018-03-28T16:55:29.564Z,98750
2018-03-28T16:57:58.421Z,98737
2018-03-28T17:00:26.498Z,98738
2018-03-28T17:02:54.720Z,98737
2018-03-28T17:05:22.803Z,98734
2018-03-28T17:07:51.064Z,98724
2018-03-28T17:10:19.085Z,98720
2018-03-28T17:12:47.281Z,98724
2018-03-28T17:15:15.395Z,98718
2018-03-28T17:17:43.579Z,98721
2018-03-28T17:20:11.694Z,98716
2018-03-28T17:22:40.406Z,98714
2018-03-28T17:25:08.525Z,98712
2018-03-28T17:27:36.617Z,98707
2018-03-28T17:30:04.765Z,98705
2018-03-28T17:32:32.897Z,98707
2018-03-28T17:35:01.878Z,98710
2018-03-28T17:37:30.813Z,98711
2018-03-28T17:39:59.000Z,98701
2018-03-28T17:42:27.586Z,98699
2018-03-28T17:44:55.705Z,98700
2018-03-28T17:47:23.822Z,98693
2018-03-28T17:49:52.643Z,98695
2018-03-28T17:52:20.723Z,98690
2018-03-28T17:54:48.903Z,98690
2018-03-28T17:57:17.457Z,98691
2018-03-28T17:59:46.212Z,98684
2018-03-28T18:02:14.295Z,98680
2018-03-28T18:04:42.363Z,98676
2018-03-28T18:07:10.464Z,98682
2018-03-28T18:09:39.251Z,98670
2018-03-28T18:12:07.344Z,98659
2018-03-28T18:14:35.418Z,98653
2018-03-28T18:17:03.562Z,98673
2018-03-28T18:19:31.650Z,98672
2018-03-28T18:21:59.896Z,98715
2018-03-28T18:24:27.988Z,98748
2018-03-28T18:26:56.064Z,98731
2018-03-28T18:29:25.500Z,98750
2018-03-28T18:31:53.616Z,98748
2018-03-28T18:34:21.751Z,98760
2018-03-28T18:36:50.816Z,98780
2018-03-28T18:39:18.893Z,98783
2018-03-28T18:41:46.988Z,98813
2018-03-28T18:44:15.830Z,98811
2018-03-28T18:46:43.922Z,98850
2018-03-28T18:49:12.884Z,98878
2018-03-28T18:51:41.100Z,98872
2018-03-28T18:54:09.345Z,98898
2018-03-28T18:56:37.414Z,98924
2018-03-28T18:59:05.716Z,98942
2018-03-28T19:01:33.802Z,98958
2018-03-28T19:04:02.354Z,98973
2018-03-28T19:06:31.880Z,98972
2018-03-28T19:09:00.142Z,98986
2018-03-28T19:11:28.213Z,99004
2018-03-28T19:13:56.286Z,99016
2018-03-28T19:16:24.545Z,99051
2018-03-28T19:18:52.608Z,99044
2018-03-28T19:21:20.757Z,99048
2018-03-28T19:23:48.955Z,99051
2018-03-28T19:26:17.027Z,99064
2018-03-28T19:28:45.856Z,99082
2018-03-28T19:31:14.041Z,99087
2018-03-28T19:33:42.138Z,99124
2018-03-28T19:36:10.256Z,99112
2018-03-28T19:38:38.326Z,99131
2018-03-28T19:41:07.467Z,99131
2018-03-28T19:43:36.331Z,99139
2018-03-28T19:46:04.941Z,99142
2018-03-28T19:48:34.002Z,99130
2018-03-28T19:51:05.298Z,99152
2018-03-28T19:53:34.175Z,99167
2018-03-28T19:56:02.276Z,99176
2018-03-28T19:58:30.889Z,99166
2018-03-28T20:00:58.951Z,99187
2018-03-28T20:03:27.051Z,99188
2018-03-28T20:05:55.227Z,99186
2018-03-28T20:08:23.324Z,99194
2018-03-28T20:10:51.433Z,99213
2018-03-28T20:13:19.792Z,99198
2018-03-28T20:15:47.884Z,99196
2018-03-28T20:18:15.962Z,99216
2018-03-28T20:20:48.060Z,99229
2018-03-28T20:23:16.208Z,99206
2018-03-28T20:25:45.673Z,99228
2018-03-28T20:28:13.787Z,99244
2018-03-28T20:30:41.884Z,99228
2018-03-28T20:33:09.979Z,99250
2018-03-28T20:35:38.979Z,99259
2018-03-28T20:38:07.187Z,99256
2018-03-28T20:40:36.936Z,99296
2018-03-28T20:43:05.621Z,99264
2018-03-28T20:45:33.925Z,99279
2018-03-28T20:48:03.160Z,99271
2018-03-28T20:53:03.676Z,99300
2018-03-28T20:55:31.774Z,99289
2018-03-28T20:57:59.943Z,99304
2018-03-28T21:00:28.842Z,99313
2018-03-28T21:02:56.967Z,99312
2018-03-28T21:05:26.009Z,99330
2018-03-28T21:07:54.161Z,99341
2018-03-28T21:10:22.183Z,99349
2018-03-28T21:12:50.300Z,99343
2018-03-28T21:15:18.745Z,99353
2018-03-28T21:17:46.860Z,99383
2018-03-28T21:20:14.937Z,99366
2018-03-28T21:22:43.022Z,99396
2018-03-28T21:25:11.363Z,99375
2018-03-28T21:27:39.736Z,99387
2018-03-28T21:30:07.815Z,99381
2018-03-28T21:32:36.693Z,99406
2018-03-28T21:35:05.843Z,99407
2018-03-28T21:37:34.167Z,99402
2018-03-28T21:40:02.305Z,99430
2018-03-28T21:42:30.419Z,99420
2018-03-28T21:44:59.770Z,99408
2018-03-28T21:47:27.916Z,99431
2018-03-28T21:49:55.979Z,99425
2018-03-28T21:52:24.039Z,99432
2018-03-28T21:54:53.038Z,99433
2018-03-28T21:57:22.105Z,99445
2018-03-28T21:59:50.830Z,99459
2018-03-28T22:02:18.928Z,99455
2018-03-28T22:04:47.026Z,99466
2018-03-28T22:07:15.151Z,99465
2018-03-28T22:09:43.217Z,99488
2018-03-28T22:12:11.330Z,99480
2018-03-28T22:14:39.429Z,99481
2018-03-28T22:17:07.487Z,99502
2018-03-28T22:19:35.573Z,99487
2018-03-28T22:22:04.681Z,99492
2018-03-28T22:24:32.742Z,99497
2018-03-28T22:27:00.989Z,99500
2018-03-28T22:29:29.086Z,99504
2018-03-28T22:31:57.182Z,99506
2018-03-28T22:34:25.327Z,99520
2018-03-28T22:36:53.403Z,99512
2018-03-28T22:39:21.490Z,99519
2018-03-28T22:41:50.500Z,99519
2018-03-28T22:44:18.575Z,99522
2018-03-28T22:46:47.395Z,99535
2018-03-28T22:49:15.480Z,99530
2018-03-28T22:51:43.563Z,99528
2018-03-28T22:54:12.543Z,99533
2018-03-28T22:56:40.640Z,99534
2018-03-28T22:59:08.739Z,99546
2018-03-28T23:01:37.605Z,99541
2018-03-28T23:04:05.743Z,99546
2018-03-28T23:06:34.912Z,99545
2018-03-28T23:09:02.984Z,99542
2018-03-28T23:11:31.090Z,99549
2018-03-28T23:13:59.264Z,99555
2018-03-28T23:16:27.490Z,99557
2018-03-28T23:18:56.382Z,99568
2018-03-28T23:21:25.243Z,99563
2018-03-28T23:23:53.375Z,99578
2018-03-28T23:26:21.517Z,99577
2018-03-28T23:28:49.600Z,99585
2018-03-28T23:31:18.467Z,99582
2018-03-28T23:33:46.567Z,99586
2018-03-28T23:36:15.424Z,99586
2018-03-28T23:38:43.543Z,99583
2018-03-28T23:41:11.632Z,99590
2018-03-28T23:43:39.739Z,99596
2018-03-28T23:46:08.843Z,99592
2018-03-28T23:48:36.928Z,99590
2018-03-28T23:51:05.015Z,99605
2018-03-28T23:53:33.855Z,99594
2018-03-28T23:56:02.097Z,99595
2018-03-28T23:58:30.389Z,99600
